METAR / TAF

Buochs LSZC 041850Z AUTO VRB03KT 9999 FEW075 SCT085 05/02 Q1002

TAF LSZC 032050Z 0320/0324 CNL


Alpnach AFB LSMA 041850Z AUTO 27006KT 210V320 9999NDV FEW022 BKN079 BKN110 00/M02 Q1002

TAF LSMA 041625Z 0417/0523 VRB02KT 9999 FEW020 BKN040 PROB30 TEMPO 0417/0419 4500 RA TEMPO 0419/0421 04012KT TEMPO 0420/0423 4000 SHRA SCT020TCU PROB40 TEMPO 0503/0518 4000 SHRASN SCT020TCU PROB30 TEMPO 0512/0518 04010KT 2000 SHSN BKN010 SCT020TCU


Emmen AFB LSME 031550Z VRB01KT 9999 BKN092 OVC120 01/M02 Q1015 RMK BLU

TAF LSME 041625Z 0417/0523 VRB02KT 9999 FEW020 BKN040 PROB30 TEMPO 0417/0419 4500 RA TEMPO 0419/0421 28016G28KT TEMPO 0420/0423 4000 SHRA SCT020TCU PROB40 TEMPO 0503/0518 4000 SHRASN SCT020TCU PROB30 TEMPO 0512/0518 28010KT 2000 SHSN BKN010 SCT020TCU


Bern LSZB 041850Z 25010KT 190V320 9999 -RA FEW015 BKN038 07/03 Q1003 NOSIG

TAF LSZB 041425Z 0415/0424 23012KT 5000 -RA BR FEW005 BKN045 TEMPO 0415/0419 24016G28KT TEMPO 0418/0422 4000 SHRA PROB40 TEMPO 0418/0420 28018G35KT 3000 SHRA SCT020TCU


Grenchen LSZG 041850Z AUTO 27022KT 7000 -RA FEW023 06/03 Q1003

TAF LSZG 041425Z 0415/0424 24010KT 9999 BKN020 TEMPO 0415/0417 25015G28KT RA BKN012 TEMPO 0417/0420 29015G35KT


Zurich LSZH 041850Z 21008KT 170V250 9000 -SHRA FEW013 SCT018 BKN028 07/04 Q1001 WS ALL RWY BECMG 28016G30KT 4000 SHRA SCT020TCU

TAF LSZH 041725Z 0418/0524 27010KT 9999 FEW010 SCT015 OVC025 TX04/0513Z TN00/0521Z TEMPO 0419/0421 28016G30KT 4000 SHRA SCT020TCU PROB40 TEMPO 0503/0519 4000 SHRASN SCT020TCU PROB40 TEMPO 0513/0516 27010KT 2000 SHSN BKN010


Bale LFSB 041900Z AUTO 27017KT 5000 +RA BR SCT016/// BKN023/// OVC034/// ///TCU 04/02 Q1004 TEMPO 25017G30KT 2000 TSRA SCT010 SCT025CB

TAF LFSB 041741Z 0418/0518 25012KT 9999 BKN030 TEMPO 0418/0422 25017G30KT 4000 SHRA SCT030TCU PROB40 TEMPO 0418/0420 2000 TSRA SCT010 SCT025CB TEMPO 0422/0518 4000 -SHRA FEW025TCU BECMG 0505/0508 18003KT PROB30 TEMPO 0510/0516 SHRA FEW020CB


Les Eplatures LSGC 041850Z AUTO 25005KT 200V340 0900 -SN BCFG VV004 M00/M01 Q1003 REFZDZ

TAF LSGC 041425Z 0415/0424 25008KT 9999 -RA OVC010 TEMPO 0415/0418 3500 RA BKN004 TEMPO 0419/0424 0500 SHSNRA VV003


Geneva LSGG 041850Z 27012KT 240V320 9999 -RA FEW020 BKN035 06/02 Q1007 RERA TEMPO RA

TAF LSGG 041725Z 0418/0524 24012KT 9999 FEW020 BKN040 TX05/0514Z TN02/0506Z TEMPO 0418/0502 SHRA TEMPO 0506/0512 3000 SHRASN PROB40 TEMPO 0518/0524 1200 SHSN VV005


Sion LSGS 041850Z AUTO VRB01KT 4100 -SN BKN/// 01/01 Q1005

TAF LSGS 041850Z 0418/0424 VRB02KT 7000 -RA FEW005 SCT020 OVC060 TEMPO 0418/0422 1200 -SHSN BKN010


Payerne AFB LSMP 041850Z AUTO 27018G32KT 230V300 8000NDV +RA SCT018 BKN029 OVC035 06/03 Q1005

TAF LSMP 041625Z 0417/0523 23013KT 9999 -SHRA FEW025 BKN045 TEMPO 0417/0420 SHRA TEMPO 0506/0513 2500 SHSNRA BKN012 PROB30 0514/0523 1500 SHSN VV007


Lugano LSZA 041850Z AUTO 01002KT 9999 BKN095 BKN100 03/M01 Q1005

TAF LSZA 041425Z 0415/0424 VRB02KT CAVOK BECMG 0415/0418 9999 SCT080


Locarno LSZL 041850Z AUTO 00000KT 9999NDV BKN110 03/M02 Q1005

TAF LSZL 041725Z 0418/0503 VRB02KT 9999 BKN110


St. Gallen LSZR 041850Z AUTO VRB02KT 9999 -RA SCT031 SCT035 BKN042 06/06 Q1002

TAF LSZR 041425Z 0415/0424 10005KT 6000 -RA SCT020 BKN040 TEMPO 0415/0417 4000 RA BECMG 0416/0418 25010KT TEMPO 0420/0424 29015G28KT 4000 SHRA SCT020TCU


Samedan LSZS 041850Z AUTO 02005KT 4500 -SN BR SCT019 SCT024 OVC029 M04/M05 Q1000

TAF LSZS 041425Z 0415/0424 20005KT 9999 BKN055 TXM02/0415Z PROB30 TEMPO 0415/0418 20012G25KT TEMPO 0415/0418 2500 SN BKN008 TEMPO 0421/0424 03012G25KT

Radar

Föhn diagram

From an air pressure difference of approx. 4 hPa (dashed line) between the northern and southern Alps, Föhn can occur. The higher the pressure difference, the more violent the Föhn!

Forecast

Privacy Settings
We use cookies to enhance your experience while using our website. If you are using our Services via a browser you can restrict, block or remove cookies through your web browser settings. We also use content and scripts from third parties that may use tracking technologies. You can selectively provide your consent below to allow such third party embeds. For complete information about the cookies we use, data we collect and how we process them, please check our Privacy Policy
Youtube
Consent to display content from Youtube
Vimeo
Consent to display content from Vimeo
Google Maps
Consent to display content from Google